sensor_id;sensor_type;location;lat;lon;timestamp;P1;durP1;ratioP1;P2;durP2;ratioP2
61015;SDS011;46902;52.920;6.536;2023-02-15T00:01:28;18.60;;;16.58;;
61015;SDS011;46902;52.920;6.536;2023-02-15T00:03:54;22.35;;;17.80;;
61015;SDS011;46902;52.920;6.536;2023-02-15T00:06:19;21.40;;;17.30;;
61015;SDS011;46902;52.920;6.536;2023-02-15T00:08:45;24.38;;;18.70;;
61015;SDS011;46902;52.920;6.536;2023-02-15T00:11:11;23.42;;;19.05;;
61015;SDS011;46902;52.920;6.536;2023-02-15T00:13:39;26.25;;;19.90;;
61015;SDS011;46902;52.920;6.536;2023-02-15T00:16:09;30.10;;;23.00;;
61015;SDS011;46902;52.920;6.536;2023-02-15T00:18:36;28.13;;;21.80;;
61015;SDS011;46902;52.920;6.536;2023-02-15T00:21:04;32.50;;;23.65;;
61015;SDS011;46902;52.920;6.536;2023-02-15T00:23:30;32.22;;;25.70;;
61015;SDS011;46902;52.920;6.536;2023-02-15T00:26:03;29.40;;;23.23;;
61015;SDS011;46902;52.920;6.536;2023-02-15T00:28:30;29.90;;;24.88;;
61015;SDS011;46902;52.920;6.536;2023-02-15T00:31:01;28.15;;;22.85;;
61015;SDS011;46902;52.920;6.536;2023-02-15T00:33:34;29.85;;;23.30;;
61015;SDS011;46902;52.920;6.536;2023-02-15T00:36:01;30.83;;;23.15;;
61015;SDS011;46902;52.920;6.536;2023-02-15T00:38:28;25.27;;;19.05;;
61015;SDS011;46902;52.920;6.536;2023-02-15T00:40:55;24.23;;;17.45;;
61015;SDS011;46902;52.920;6.536;2023-02-15T00:43:22;23.17;;;16.55;;
61015;SDS011;46902;52.920;6.536;2023-02-15T00:45:48;19.50;;;15.45;;
61015;SDS011;46902;52.920;6.536;2023-02-15T00:48:14;21.67;;;17.20;;
61015;SDS011;46902;52.920;6.536;2023-02-15T00:50:40;24.02;;;17.95;;
61015;SDS011;46902;52.920;6.536;2023-02-15T00:53:05;22.17;;;17.55;;
61015;SDS011;46902;52.920;6.536;2023-02-15T00:55:31;24.40;;;17.55;;
61015;SDS011;46902;52.920;6.536;2023-02-15T00:57:57;22.27;;;17.65;;
61015;SDS011;46902;52.920;6.536;2023-02-15T01:00:23;23.50;;;17.40;;
61015;SDS011;46902;52.920;6.536;2023-02-15T01:02:48;27.08;;;18.20;;
61015;SDS011;46902;52.920;6.536;2023-02-15T01:05:14;23.92;;;18.40;;
61015;SDS011;46902;52.920;6.536;2023-02-15T01:07:39;24.10;;;19.42;;
61015;SDS011;46902;52.920;6.536;2023-02-15T01:10:06;24.10;;;19.33;;
61015;SDS011;46902;52.920;6.536;2023-02-15T01:12:32;21.75;;;17.83;;
61015;SDS011;46902;52.920;6.536;2023-02-15T01:14:58;26.40;;;19.80;;
61015;SDS011;46902;52.920;6.536;2023-02-15T01:17:24;24.10;;;18.45;;
61015;SDS011;46902;52.920;6.536;2023-02-15T01:19:49;29.58;;;21.10;;
61015;SDS011;46902;52.920;6.536;2023-02-15T01:22:16;26.92;;;19.75;;
61015;SDS011;46902;52.920;6.536;2023-02-15T01:24:42;26.23;;;19.20;;
61015;SDS011;46902;52.920;6.536;2023-02-15T01:27:09;26.88;;;20.13;;
61015;SDS011;46902;52.920;6.536;2023-02-15T01:29:34;26.00;;;20.05;;
61015;SDS011;46902;52.920;6.536;2023-02-15T01:32:00;26.42;;;20.52;;
61015;SDS011;46902;52.920;6.536;2023-02-15T01:34:25;26.15;;;19.55;;
61015;SDS011;46902;52.920;6.536;2023-02-15T01:36:51;26.80;;;20.13;;
61015;SDS011;46902;52.920;6.536;2023-02-15T01:39:16;26.75;;;20.27;;
61015;SDS011;46902;52.920;6.536;2023-02-15T01:41:42;25.85;;;20.42;;
61015;SDS011;46902;52.920;6.536;2023-02-15T01:47:07;23.80;;;20.20;;
61015;SDS011;46902;52.920;6.536;2023-02-15T01:49:36;23.75;;;19.65;;
61015;SDS011;46902;52.920;6.536;2023-02-15T01:52:06;25.08;;;20.13;;
61015;SDS011;46902;52.920;6.536;2023-02-15T01:54:33;25.50;;;20.52;;
61015;SDS011;46902;52.920;6.536;2023-02-15T01:57:05;26.05;;;20.05;;
61015;SDS011;46902;52.920;6.536;2023-02-15T01:59:35;26.17;;;21.98;;
61015;SDS011;46902;52.920;6.536;2023-02-15T02:02:03;28.27;;;22.33;;
61015;SDS011;46902;52.920;6.536;2023-02-15T02:04:41;26.27;;;20.65;;
61015;SDS011;46902;52.920;6.536;2023-02-15T02:07:13;26.95;;;20.50;;
61015;SDS011;46902;52.920;6.536;2023-02-15T02:09:42;26.83;;;21.80;;
61015;SDS011;46902;52.920;6.536;2023-02-15T02:12:09;25.23;;;19.95;;
61015;SDS011;46902;52.920;6.536;2023-02-15T02:14:35;28.08;;;21.25;;
61015;SDS011;46902;52.920;6.536;2023-02-15T02:20:14;32.28;;;23.48;;
61015;SDS011;46902;52.920;6.536;2023-02-15T02:31:22;29.98;;;23.40;;
61015;SDS011;46902;52.920;6.536;2023-02-15T02:34:30;36.15;;;25.13;;
61015;SDS011;46902;52.920;6.536;2023-02-15T02:44:57;33.25;;;24.17;;
61015;SDS011;46902;52.920;6.536;2023-02-15T02:47:51;39.42;;;25.77;;
61015;SDS011;46902;52.920;6.536;2023-02-15T02:50:25;41.28;;;26.88;;
61015;SDS011;46902;52.920;6.536;2023-02-15T02:52:54;37.55;;;25.65;;
61015;SDS011;46902;52.920;6.536;2023-02-15T02:55:22;37.95;;;25.00;;
61015;SDS011;46902;52.920;6.536;2023-02-15T03:00:56;40.95;;;26.00;;
61015;SDS011;46902;52.920;6.536;2023-02-15T03:03:32;30.55;;;21.77;;
61015;SDS011;46902;52.920;6.536;2023-02-15T03:06:16;28.75;;;22.42;;
61015;SDS011;46902;52.920;6.536;2023-02-15T03:08:50;28.83;;;21.40;;
61015;SDS011;46902;52.920;6.536;2023-02-15T03:11:20;30.17;;;22.02;;
61015;SDS011;46902;52.920;6.536;2023-02-15T03:13:46;31.38;;;22.35;;
61015;SDS011;46902;52.920;6.536;2023-02-15T03:16:14;35.42;;;24.65;;
61015;SDS011;46902;52.920;6.536;2023-02-15T03:18:52;37.22;;;25.48;;
61015;SDS011;46902;52.920;6.536;2023-02-15T03:21:27;33.28;;;22.75;;
61015;SDS011;46902;52.920;6.536;2023-02-15T03:23:59;28.27;;;19.95;;
61015;SDS011;46902;52.920;6.536;2023-02-15T03:26:30;28.95;;;21.20;;
61015;SDS011;46902;52.920;6.536;2023-02-15T03:28:57;28.52;;;19.88;;
61015;SDS011;46902;52.920;6.536;2023-02-15T03:31:26;30.48;;;22.05;;
61015;SDS011;46902;52.920;6.536;2023-02-15T03:33:57;27.83;;;21.30;;
61015;SDS011;46902;52.920;6.536;2023-02-15T03:36:46;33.72;;;23.50;;
61015;SDS011;46902;52.920;6.536;2023-02-15T03:39:30;32.40;;;23.67;;
61015;SDS011;46902;52.920;6.536;2023-02-15T03:44:38;31.65;;;23.85;;
61015;SDS011;46902;52.920;6.536;2023-02-15T03:47:19;35.08;;;25.42;;
61015;SDS011;46902;52.920;6.536;2023-02-15T03:50:03;36.65;;;23.58;;
61015;SDS011;46902;52.920;6.536;2023-02-15T03:52:52;33.25;;;21.85;;
61015;SDS011;46902;52.920;6.536;2023-02-15T03:55:20;33.25;;;22.92;;
61015;SDS011;46902;52.920;6.536;2023-02-15T03:57:46;31.25;;;21.88;;
61015;SDS011;46902;52.920;6.536;2023-02-15T04:00:30;30.88;;;22.63;;
61015;SDS011;46902;52.920;6.536;2023-02-15T04:03:22;28.23;;;21.75;;
61015;SDS011;46902;52.920;6.536;2023-02-15T04:05:54;27.58;;;21.60;;
61015;SDS011;46902;52.920;6.536;2023-02-15T04:08:20;29.42;;;20.63;;
61015;SDS011;46902;52.920;6.536;2023-02-15T04:11:05;28.15;;;21.55;;
61015;SDS011;46902;52.920;6.536;2023-02-15T04:13:31;32.22;;;22.25;;
61015;SDS011;46902;52.920;6.536;2023-02-15T04:15:57;30.73;;;21.52;;
61015;SDS011;46902;52.920;6.536;2023-02-15T04:18:33;32.45;;;22.42;;
61015;SDS011;46902;52.920;6.536;2023-02-15T04:21:20;32.63;;;22.20;;
61015;SDS011;46902;52.920;6.536;2023-02-15T04:24:06;34.35;;;22.52;;
61015;SDS011;46902;52.920;6.536;2023-02-15T04:26:51;35.38;;;22.98;;
61015;SDS011;46902;52.920;6.536;2023-02-15T04:29:20;59.63;;;27.65;;
61015;SDS011;46902;52.920;6.536;2023-02-15T04:31:47;60.83;;;28.50;;
61015;SDS011;46902;52.920;6.536;2023-02-15T04:34:13;55.13;;;31.23;;
61015;SDS011;46902;52.920;6.536;2023-02-15T04:36:39;52.03;;;29.63;;
61015;SDS011;46902;52.920;6.536;2023-02-15T04:39:06;53.80;;;29.90;;
61015;SDS011;46902;52.920;6.536;2023-02-15T04:41:32;53.67;;;32.25;;
61015;SDS011;46902;52.920;6.536;2023-02-15T04:43:58;55.15;;;31.42;;
61015;SDS011;46902;52.920;6.536;2023-02-15T04:46:25;49.25;;;29.45;;
61015;SDS011;46902;52.920;6.536;2023-02-15T04:48:51;50.53;;;31.77;;
61015;SDS011;46902;52.920;6.536;2023-02-15T04:51:17;46.25;;;29.38;;
61015;SDS011;46902;52.920;6.536;2023-02-15T04:53:43;52.88;;;31.73;;
61015;SDS011;46902;52.920;6.536;2023-02-15T04:56:08;46.25;;;28.60;;
61015;SDS011;46902;52.920;6.536;2023-02-15T04:58:34;46.00;;;30.10;;
61015;SDS011;46902;52.920;6.536;2023-02-15T05:01:00;51.38;;;33.17;;
61015;SDS011;46902;52.920;6.536;2023-02-15T05:03:26;44.20;;;30.23;;
61015;SDS011;46902;52.920;6.536;2023-02-15T05:05:51;52.45;;;31.52;;
61015;SDS011;46902;52.920;6.536;2023-02-15T05:08:17;54.90;;;32.10;;
61015;SDS011;46902;52.920;6.536;2023-02-15T05:10:43;49.10;;;30.77;;
61015;SDS011;46902;52.920;6.536;2023-02-15T05:13:08;46.28;;;30.65;;
61015;SDS011;46902;52.920;6.536;2023-02-15T05:15:34;42.05;;;28.23;;
61015;SDS011;46902;52.920;6.536;2023-02-15T05:17:59;77.80;;;33.63;;
61015;SDS011;46902;52.920;6.536;2023-02-15T05:20:26;50.78;;;31.55;;
61015;SDS011;46902;52.920;6.536;2023-02-15T05:22:55;43.20;;;29.75;;
61015;SDS011;46902;52.920;6.536;2023-02-15T05:25:21;54.60;;;31.15;;
61015;SDS011;46902;52.920;6.536;2023-02-15T05:28:05;53.95;;;31.63;;
61015;SDS011;46902;52.920;6.536;2023-02-15T05:30:44;37.38;;;27.42;;
61015;SDS011;46902;52.920;6.536;2023-02-15T05:33:10;40.97;;;30.00;;
61015;SDS011;46902;52.920;6.536;2023-02-15T05:35:35;41.17;;;29.52;;
61015;SDS011;46902;52.920;6.536;2023-02-15T05:38:01;42.92;;;27.98;;
61015;SDS011;46902;52.920;6.536;2023-02-15T05:40:27;47.92;;;28.83;;
61015;SDS011;46902;52.920;6.536;2023-02-15T05:42:52;39.33;;;26.92;;
61015;SDS011;46902;52.920;6.536;2023-02-15T05:45:18;36.65;;;26.90;;
61015;SDS011;46902;52.920;6.536;2023-02-15T05:47:44;46.65;;;28.48;;
61015;SDS011;46902;52.920;6.536;2023-02-15T05:50:09;41.92;;;25.50;;
61015;SDS011;46902;52.920;6.536;2023-02-15T05:52:36;37.40;;;26.45;;
61015;SDS011;46902;52.920;6.536;2023-02-15T05:55:02;38.30;;;26.42;;
61015;SDS011;46902;52.920;6.536;2023-02-15T05:57:29;37.15;;;25.70;;
61015;SDS011;46902;52.920;6.536;2023-02-15T05:59:55;37.97;;;27.45;;
61015;SDS011;46902;52.920;6.536;2023-02-15T06:02:21;39.78;;;28.35;;
61015;SDS011;46902;52.920;6.536;2023-02-15T06:04:46;34.20;;;24.75;;
61015;SDS011;46902;52.920;6.536;2023-02-15T06:07:12;33.03;;;25.30;;
61015;SDS011;46902;52.920;6.536;2023-02-15T06:09:38;41.33;;;27.42;;
61015;SDS011;46902;52.920;6.536;2023-02-15T06:12:04;35.42;;;25.30;;
61015;SDS011;46902;52.920;6.536;2023-02-15T06:14:29;33.30;;;23.50;;
61015;SDS011;46902;52.920;6.536;2023-02-15T06:16:55;38.85;;;27.48;;
61015;SDS011;46902;52.920;6.536;2023-02-15T06:19:21;40.08;;;28.27;;
61015;SDS011;46902;52.920;6.536;2023-02-15T06:21:47;35.00;;;24.83;;
61015;SDS011;46902;52.920;6.536;2023-02-15T06:24:13;40.08;;;27.70;;
61015;SDS011;46902;52.920;6.536;2023-02-15T06:26:39;35.05;;;24.48;;
61015;SDS011;46902;52.920;6.536;2023-02-15T06:29:05;37.67;;;25.40;;
61015;SDS011;46902;52.920;6.536;2023-02-15T06:31:30;40.67;;;26.52;;
61015;SDS011;46902;52.920;6.536;2023-02-15T06:33:56;36.35;;;25.30;;
61015;SDS011;46902;52.920;6.536;2023-02-15T06:36:26;39.22;;;27.08;;
61015;SDS011;46902;52.920;6.536;2023-02-15T06:38:53;31.95;;;23.90;;
61015;SDS011;46902;52.920;6.536;2023-02-15T06:41:19;36.72;;;25.92;;
61015;SDS011;46902;52.920;6.536;2023-02-15T06:43:45;34.25;;;25.42;;
61015;SDS011;46902;52.920;6.536;2023-02-15T06:46:10;36.08;;;25.92;;
61015;SDS011;46902;52.920;6.536;2023-02-15T06:48:36;41.35;;;27.40;;
61015;SDS011;46902;52.920;6.536;2023-02-15T06:51:02;33.92;;;24.77;;
61015;SDS011;46902;52.920;6.536;2023-02-15T06:53:28;36.72;;;25.88;;
61015;SDS011;46902;52.920;6.536;2023-02-15T06:55:59;43.13;;;28.70;;
61015;SDS011;46902;52.920;6.536;2023-02-15T06:58:31;37.38;;;26.42;;
61015;SDS011;46902;52.920;6.536;2023-02-15T07:00:57;37.03;;;26.50;;
61015;SDS011;46902;52.920;6.536;2023-02-15T07:03:23;36.42;;;26.48;;
61015;SDS011;46902;52.920;6.536;2023-02-15T07:05:53;40.47;;;27.38;;
61015;SDS011;46902;52.920;6.536;2023-02-15T07:08:20;44.58;;;28.75;;
61015;SDS011;46902;52.920;6.536;2023-02-15T07:10:45;45.65;;;29.42;;
61015;SDS011;46902;52.920;6.536;2023-02-15T07:13:11;36.83;;;25.60;;
61015;SDS011;46902;52.920;6.536;2023-02-15T07:15:36;42.88;;;29.27;;
61015;SDS011;46902;52.920;6.536;2023-02-15T07:18:02;36.75;;;26.13;;
61015;SDS011;46902;52.920;6.536;2023-02-15T07:20:27;36.95;;;26.67;;
61015;SDS011;46902;52.920;6.536;2023-02-15T07:22:54;41.08;;;26.95;;
61015;SDS011;46902;52.920;6.536;2023-02-15T07:25:19;44.17;;;29.65;;
61015;SDS011;46902;52.920;6.536;2023-02-15T07:27:45;40.05;;;28.10;;
61015;SDS011;46902;52.920;6.536;2023-02-15T07:30:12;39.63;;;27.88;;
61015;SDS011;46902;52.920;6.536;2023-02-15T07:32:39;41.47;;;28.10;;
61015;SDS011;46902;52.920;6.536;2023-02-15T07:35:24;38.13;;;27.67;;
61015;SDS011;46902;52.920;6.536;2023-02-15T07:37:50;42.42;;;27.63;;
61015;SDS011;46902;52.920;6.536;2023-02-15T07:40:18;44.90;;;28.35;;
61015;SDS011;46902;52.920;6.536;2023-02-15T07:42:43;44.60;;;28.40;;
61015;SDS011;46902;52.920;6.536;2023-02-15T07:45:09;40.33;;;28.42;;
61015;SDS011;46902;52.920;6.536;2023-02-15T07:47:35;41.45;;;29.33;;
61015;SDS011;46902;52.920;6.536;2023-02-15T07:50:01;41.95;;;28.98;;
61015;SDS011;46902;52.920;6.536;2023-02-15T07:52:27;41.42;;;27.63;;
61015;SDS011;46902;52.920;6.536;2023-02-15T07:54:52;39.75;;;28.88;;
61015;SDS011;46902;52.920;6.536;2023-02-15T07:57:18;39.97;;;28.00;;
61015;SDS011;46902;52.920;6.536;2023-02-15T07:59:43;44.42;;;30.13;;
61015;SDS011;46902;52.920;6.536;2023-02-15T08:02:10;45.25;;;27.70;;
61015;SDS011;46902;52.920;6.536;2023-02-15T08:04:36;39.38;;;27.35;;
61015;SDS011;46902;52.920;6.536;2023-02-15T08:07:01;43.50;;;29.55;;
61015;SDS011;46902;52.920;6.536;2023-02-15T08:09:27;43.90;;;28.95;;
61015;SDS011;46902;52.920;6.536;2023-02-15T08:11:53;43.47;;;29.52;;
61015;SDS011;46902;52.920;6.536;2023-02-15T08:14:19;46.33;;;30.02;;
61015;SDS011;46902;52.920;6.536;2023-02-15T08:16:50;44.03;;;29.38;;
61015;SDS011;46902;52.920;6.536;2023-02-15T08:19:21;48.85;;;31.48;;
61015;SDS011;46902;52.920;6.536;2023-02-15T08:21:52;42.72;;;30.15;;
61015;SDS011;46902;52.920;6.536;2023-02-15T08:24:20;47.60;;;30.83;;
61015;SDS011;46902;52.920;6.536;2023-02-15T08:26:47;52.28;;;32.08;;
61015;SDS011;46902;52.920;6.536;2023-02-15T08:29:24;50.28;;;32.90;;
61015;SDS011;46902;52.920;6.536;2023-02-15T08:31:59;47.03;;;31.27;;
61015;SDS011;46902;52.920;6.536;2023-02-15T08:34:30;45.55;;;30.52;;
61015;SDS011;46902;52.920;6.536;2023-02-15T08:36:57;47.88;;;30.35;;
61015;SDS011;46902;52.920;6.536;2023-02-15T08:39:23;48.92;;;31.30;;
61015;SDS011;46902;52.920;6.536;2023-02-15T08:41:48;45.63;;;30.27;;
61015;SDS011;46902;52.920;6.536;2023-02-15T08:44:15;45.05;;;32.08;;
61015;SDS011;46902;52.920;6.536;2023-02-15T08:46:43;43.03;;;30.08;;
61015;SDS011;46902;52.920;6.536;2023-02-15T08:49:12;44.47;;;30.98;;
61015;SDS011;46902;52.920;6.536;2023-02-15T08:51:39;47.00;;;31.30;;
61015;SDS011;46902;52.920;6.536;2023-02-15T08:54:13;43.90;;;30.15;;
61015;SDS011;46902;52.920;6.536;2023-02-15T08:56:41;43.88;;;30.05;;
61015;SDS011;46902;52.920;6.536;2023-02-15T08:59:11;45.78;;;31.20;;
61015;SDS011;46902;52.920;6.536;2023-02-15T09:01:45;44.53;;;29.70;;
61015;SDS011;46902;52.920;6.536;2023-02-15T09:04:12;46.58;;;31.02;;
61015;SDS011;46902;52.920;6.536;2023-02-15T09:06:38;43.03;;;29.23;;
61015;SDS011;46902;52.920;6.536;2023-02-15T09:09:04;44.97;;;30.30;;
61015;SDS011;46902;52.920;6.536;2023-02-15T09:11:32;46.10;;;31.30;;
61015;SDS011;46902;52.920;6.536;2023-02-15T09:14:01;43.50;;;30.85;;
61015;SDS011;46902;52.920;6.536;2023-02-15T09:16:29;44.80;;;30.70;;
61015;SDS011;46902;52.920;6.536;2023-02-15T09:18:57;49.42;;;31.50;;
61015;SDS011;46902;52.920;6.536;2023-02-15T09:21:23;44.00;;;31.15;;
61015;SDS011;46902;52.920;6.536;2023-02-15T09:23:51;45.30;;;30.83;;
61015;SDS011;46902;52.920;6.536;2023-02-15T09:26:21;51.03;;;33.00;;
61015;SDS011;46902;52.920;6.536;2023-02-15T09:28:51;45.30;;;32.63;;
61015;SDS011;46902;52.920;6.536;2023-02-15T09:31:24;46.08;;;30.77;;
61015;SDS011;46902;52.920;6.536;2023-02-15T09:33:51;42.55;;;30.40;;
61015;SDS011;46902;52.920;6.536;2023-02-15T09:36:18;44.38;;;31.90;;
61015;SDS011;46902;52.920;6.536;2023-02-15T09:38:47;45.63;;;30.92;;
61015;SDS011;46902;52.920;6.536;2023-02-15T09:41:31;49.95;;;32.08;;
61015;SDS011;46902;52.920;6.536;2023-02-15T10:05:37;50.33;;;35.60;;
61015;SDS011;46902;52.920;6.536;2023-02-15T10:08:40;51.33;;;35.75;;
61015;SDS011;46902;52.920;6.536;2023-02-15T10:11:15;47.90;;;34.27;;
61015;SDS011;46902;52.920;6.536;2023-02-15T10:20:08;56.28;;;39.22;;
61015;SDS011;46902;52.920;6.536;2023-02-15T10:28:42;46.13;;;34.38;;
61015;SDS011;46902;52.920;6.536;2023-02-15T10:31:50;47.88;;;32.90;;
61015;SDS011;46902;52.920;6.536;2023-02-15T10:34:19;45.10;;;33.35;;
61015;SDS011;46902;52.920;6.536;2023-02-15T10:37:02;47.25;;;32.88;;
61015;SDS011;46902;52.920;6.536;2023-02-15T10:48:27;49.63;;;33.38;;
61015;SDS011;46902;52.920;6.536;2023-02-15T10:51:08;49.72;;;33.85;;
61015;SDS011;46902;52.920;6.536;2023-02-15T10:54:01;46.78;;;31.98;;
61015;SDS011;46902;52.920;6.536;2023-02-15T10:56:35;49.67;;;34.60;;
61015;SDS011;46902;52.920;6.536;2023-02-15T10:59:30;47.60;;;34.00;;
61015;SDS011;46902;52.920;6.536;2023-02-15T11:05:02;45.47;;;31.55;;
61015;SDS011;46902;52.920;6.536;2023-02-15T11:07:52;48.88;;;31.95;;
61015;SDS011;46902;52.920;6.536;2023-02-15T11:10:30;47.85;;;32.45;;
61015;SDS011;46902;52.920;6.536;2023-02-15T11:12:59;43.58;;;33.17;;
61015;SDS011;46902;52.920;6.536;2023-02-15T11:15:43;46.20;;;33.08;;
61015;SDS011;46902;52.920;6.536;2023-02-15T11:18:37;46.58;;;32.33;;
61015;SDS011;46902;52.920;6.536;2023-02-15T11:23:39;47.05;;;30.95;;
61015;SDS011;46902;52.920;6.536;2023-02-15T11:37:18;40.40;;;29.80;;
61015;SDS011;46902;52.920;6.536;2023-02-15T11:39:46;43.75;;;30.88;;
61015;SDS011;46902;52.920;6.536;2023-02-15T11:42:21;43.30;;;31.08;;
61015;SDS011;46902;52.920;6.536;2023-02-15T11:45:14;42.65;;;30.75;;
61015;SDS011;46902;52.920;6.536;2023-02-15T11:47:45;38.97;;;30.60;;
61015;SDS011;46902;52.920;6.536;2023-02-15T11:50:15;42.22;;;30.85;;
61015;SDS011;46902;52.920;6.536;2023-02-15T11:52:47;44.03;;;31.92;;
61015;SDS011;46902;52.920;6.536;2023-02-15T11:55:14;49.22;;;30.73;;
61015;SDS011;46902;52.920;6.536;2023-02-15T11:57:46;42.63;;;31.33;;
61015;SDS011;46902;52.920;6.536;2023-02-15T12:01:10;41.92;;;30.35;;
61015;SDS011;46902;52.920;6.536;2023-02-15T12:03:29;43.53;;;29.58;;
61015;SDS011;46902;52.920;6.536;2023-02-15T12:06:02;42.03;;;30.65;;
61015;SDS011;46902;52.920;6.536;2023-02-15T12:08:39;41.97;;;28.55;;
61015;SDS011;46902;52.920;6.536;2023-02-15T12:11:11;42.97;;;29.70;;
61015;SDS011;46902;52.920;6.536;2023-02-15T12:16:25;40.80;;;29.77;;
61015;SDS011;46902;52.920;6.536;2023-02-15T12:18:53;40.92;;;29.55;;
61015;SDS011;46902;52.920;6.536;2023-02-15T12:21:25;43.28;;;28.85;;
61015;SDS011;46902;52.920;6.536;2023-02-15T12:24:12;38.00;;;28.77;;
61015;SDS011;46902;52.920;6.536;2023-02-15T12:29:34;38.28;;;28.23;;
61015;SDS011;46902;52.920;6.536;2023-02-15T12:32:05;42.58;;;28.98;;
61015;SDS011;46902;52.920;6.536;2023-02-15T12:34:38;41.95;;;29.27;;
61015;SDS011;46902;52.920;6.536;2023-02-15T12:37:10;39.65;;;27.63;;
61015;SDS011;46902;52.920;6.536;2023-02-15T12:39:58;40.22;;;27.33;;
61015;SDS011;46902;52.920;6.536;2023-02-15T12:42:26;38.72;;;28.00;;
61015;SDS011;46902;52.920;6.536;2023-02-15T12:47:44;37.55;;;26.98;;
61015;SDS011;46902;52.920;6.536;2023-02-15T12:50:14;39.45;;;27.67;;
61015;SDS011;46902;52.920;6.536;2023-02-15T12:52:48;39.90;;;26.85;;
61015;SDS011;46902;52.920;6.536;2023-02-15T12:55:20;35.67;;;25.45;;
61015;SDS011;46902;52.920;6.536;2023-02-15T12:57:48;42.17;;;26.08;;
61015;SDS011;46902;52.920;6.536;2023-02-15T13:02:48;39.88;;;26.55;;
61015;SDS011;46902;52.920;6.536;2023-02-15T13:05:35;38.10;;;27.33;;
61015;SDS011;46902;52.920;6.536;2023-02-15T13:10:37;35.47;;;25.42;;
61015;SDS011;46902;52.920;6.536;2023-02-15T13:13:30;37.00;;;26.67;;
61015;SDS011;46902;52.920;6.536;2023-02-15T13:16:09;37.30;;;26.77;;
61015;SDS011;46902;52.920;6.536;2023-02-15T13:18:38;38.67;;;26.58;;
61015;SDS011;46902;52.920;6.536;2023-02-15T13:21:13;36.53;;;26.35;;
61015;SDS011;46902;52.920;6.536;2023-02-15T13:23:43;38.47;;;26.90;;
61015;SDS011;46902;52.920;6.536;2023-02-15T13:26:22;39.65;;;26.40;;
61015;SDS011;46902;52.920;6.536;2023-02-15T13:28:55;39.60;;;27.73;;
61015;SDS011;46902;52.920;6.536;2023-02-15T13:31:24;39.63;;;26.45;;
61015;SDS011;46902;52.920;6.536;2023-02-15T13:34:12;36.22;;;25.83;;
61015;SDS011;46902;52.920;6.536;2023-02-15T13:36:49;40.13;;;26.88;;
61015;SDS011;46902;52.920;6.536;2023-02-15T13:39:31;36.08;;;26.02;;
61015;SDS011;46902;52.920;6.536;2023-02-15T13:48:07;35.47;;;26.35;;
61015;SDS011;46902;52.920;6.536;2023-02-15T14:01:11;37.03;;;26.65;;
61015;SDS011;46902;52.920;6.536;2023-02-15T14:03:52;38.30;;;26.60;;
61015;SDS011;46902;52.920;6.536;2023-02-15T14:09:40;37.05;;;26.58;;
61015;SDS011;46902;52.920;6.536;2023-02-15T14:12:18;36.85;;;26.00;;
61015;SDS011;46902;52.920;6.536;2023-02-15T14:21:08;38.28;;;26.67;;
61015;SDS011;46902;52.920;6.536;2023-02-15T14:23:43;40.80;;;26.92;;
61015;SDS011;46902;52.920;6.536;2023-02-15T14:29:13;38.42;;;26.92;;
61015;SDS011;46902;52.920;6.536;2023-02-15T14:31:49;36.05;;;26.02;;
61015;SDS011;46902;52.920;6.536;2023-02-15T14:34:23;37.42;;;25.48;;
61015;SDS011;46902;52.920;6.536;2023-02-15T14:36:55;38.15;;;26.25;;
61015;SDS011;46902;52.920;6.536;2023-02-15T14:39:28;37.70;;;26.17;;
61015;SDS011;46902;52.920;6.536;2023-02-15T14:42:34;39.13;;;25.98;;
61015;SDS011;46902;52.920;6.536;2023-02-15T14:47:48;36.58;;;25.45;;
61015;SDS011;46902;52.920;6.536;2023-02-15T14:50:36;38.40;;;25.48;;
61015;SDS011;46902;52.920;6.536;2023-02-15T14:58:36;38.50;;;24.80;;
61015;SDS011;46902;52.920;6.536;2023-02-15T15:01:11;36.85;;;24.73;;
61015;SDS011;46902;52.920;6.536;2023-02-15T15:03:42;33.20;;;22.83;;
61015;SDS011;46902;52.920;6.536;2023-02-15T15:06:23;33.88;;;24.15;;
61015;SDS011;46902;52.920;6.536;2023-02-15T15:08:54;38.97;;;25.10;;
61015;SDS011;46902;52.920;6.536;2023-02-15T15:13:53;37.88;;;24.73;;
61015;SDS011;46902;52.920;6.536;2023-02-15T15:16:24;40.65;;;24.25;;
61015;SDS011;46902;52.920;6.536;2023-02-15T15:18:55;39.10;;;24.52;;
61015;SDS011;46902;52.920;6.536;2023-02-15T15:24:57;38.70;;;25.13;;
61015;SDS011;46902;52.920;6.536;2023-02-15T15:41:16;39.05;;;24.42;;
61015;SDS011;46902;52.920;6.536;2023-02-15T15:49:34;36.40;;;24.30;;
61015;SDS011;46902;52.920;6.536;2023-02-15T15:52:08;33.90;;;23.13;;
61015;SDS011;46902;52.920;6.536;2023-02-15T15:54:40;35.55;;;24.35;;
61015;SDS011;46902;52.920;6.536;2023-02-15T15:59:51;35.38;;;24.60;;
61015;SDS011;46902;52.920;6.536;2023-02-15T16:02:18;37.90;;;24.92;;
61015;SDS011;46902;52.920;6.536;2023-02-15T16:04:45;36.50;;;24.98;;
61015;SDS011;46902;52.920;6.536;2023-02-15T16:07:33;40.08;;;26.05;;
61015;SDS011;46902;52.920;6.536;2023-02-15T16:12:24;33.58;;;24.70;;
61015;SDS011;46902;52.920;6.536;2023-02-15T16:14:54;36.75;;;25.85;;
61015;SDS011;46902;52.920;6.536;2023-02-15T16:17:25;37.80;;;25.38;;
61015;SDS011;46902;52.920;6.536;2023-02-15T16:19:56;36.55;;;25.13;;
61015;SDS011;46902;52.920;6.536;2023-02-15T16:22:26;37.97;;;25.83;;
61015;SDS011;46902;52.920;6.536;2023-02-15T16:33:33;40.05;;;26.27;;
61015;SDS011;46902;52.920;6.536;2023-02-15T16:36:02;43.15;;;26.67;;
61015;SDS011;46902;52.920;6.536;2023-02-15T16:41:14;43.72;;;25.65;;
61015;SDS011;46902;52.920;6.536;2023-02-15T16:43:42;42.78;;;25.92;;
61015;SDS011;46902;52.920;6.536;2023-02-15T16:46:11;40.58;;;25.50;;
61015;SDS011;46902;52.920;6.536;2023-02-15T16:48:44;39.57;;;25.63;;
61015;SDS011;46902;52.920;6.536;2023-02-15T16:53:49;37.70;;;24.20;;
61015;SDS011;46902;52.920;6.536;2023-02-15T16:56:22;38.10;;;25.30;;
61015;SDS011;46902;52.920;6.536;2023-02-15T16:58:52;36.97;;;24.27;;
61015;SDS011;46902;52.920;6.536;2023-02-15T17:01:20;36.33;;;24.67;;
61015;SDS011;46902;52.920;6.536;2023-02-15T17:03:49;37.63;;;25.10;;
61015;SDS011;46902;52.920;6.536;2023-02-15T17:06:20;37.50;;;24.23;;
61015;SDS011;46902;52.920;6.536;2023-02-15T17:08:48;38.20;;;25.83;;
61015;SDS011;46902;52.920;6.536;2023-02-15T17:11:21;40.38;;;26.25;;
61015;SDS011;46902;52.920;6.536;2023-02-15T17:16:45;39.30;;;25.10;;
61015;SDS011;46902;52.920;6.536;2023-02-15T17:19:19;38.40;;;25.50;;
61015;SDS011;46902;52.920;6.536;2023-02-15T17:21:49;38.10;;;25.98;;
61015;SDS011;46902;52.920;6.536;2023-02-15T17:24:32;45.53;;;25.65;;
61015;SDS011;46902;52.920;6.536;2023-02-15T17:27:02;40.28;;;25.35;;
61015;SDS011;46902;52.920;6.536;2023-02-15T17:29:44;39.92;;;24.92;;
61015;SDS011;46902;52.920;6.536;2023-02-15T17:32:27;43.13;;;26.25;;
61015;SDS011;46902;52.920;6.536;2023-02-15T17:34:59;38.78;;;25.33;;
61015;SDS011;46902;52.920;6.536;2023-02-15T17:40:07;40.88;;;25.90;;
61015;SDS011;46902;52.920;6.536;2023-02-15T17:42:48;43.03;;;27.30;;
61015;SDS011;46902;52.920;6.536;2023-02-15T17:45:14;38.25;;;26.23;;
61015;SDS011;46902;52.920;6.536;2023-02-15T17:47:40;43.78;;;27.23;;
61015;SDS011;46902;52.920;6.536;2023-02-15T17:50:07;39.33;;;27.52;;
61015;SDS011;46902;52.920;6.536;2023-02-15T17:52:40;42.38;;;26.70;;